F/V Barr Avel — FHAO — position and weather

sailwx.info

Track history (hours):
 
Tides and Currents Weather Stations Pressure Air Temp Water Temp Dewpoint Dewpoint Depression Visibility Wind Speed Wind Dir Waves Ship Positions

F/V Barr Avel

Last reported at 2017-Sep-24 19:30 UTC. Time now 2017-Sep-24 19:34 UTC.
Position N 48°14' W 004°46'.

Length 16 m.

Type: Fishing. MMSI: 228293000.

Date/timePositionNaut miles runAvg speedWind from/ knotsBaromVisibWave heightAir tempDewpointWater temp
2017-Sep-24 19:30N 48°14' W 004°46'1 3.0
2017-Sep-24 19:00N 48°13' W 004°48'0 0.7
2017-Sep-24 18:31N 48°13' W 004°47'4 7.8
2017-Sep-24 18:00N 48°09' W 004°44'5 9.1
2017-Sep-24 17:31N 48°09' W 004°37'4 8.9
2017-Sep-24 17:00N 48°09' W 004°30'4 8.9
2017-Sep-24 16:30N 48°08' W 004°24'4 7.1
2017-Sep-24 16:00N 48°06' W 004°19'0 0.1
2017-Sep-24 15:31N 48°06' W 004°19'0 0.0
2017-Sep-24 15:00N 48°06' W 004°19'  
2017-Sep-22 02:00N 48°10' W 004°29'1 1.5
2017-Sep-22 01:30N 48°10' W 004°30'0 0.8
2017-Sep-22 01:00N 48°10' W 004°30'1 1.4
2017-Sep-22 00:30N 48°09' W 004°30'0 0.8
2017-Sep-22 00:00N 48°09' W 004°31'0 0.3
2017-Sep-21 23:30N 48°09' W 004°31'0 0.9
2017-Sep-21 23:00N 48°09' W 004°31'1 2.0
2017-Sep-21 22:30N 48°08' W 004°31'4 8.2
2017-Sep-21 22:01N 48°07' W 004°38'4 8.5
2017-Sep-21 21:30N 48°09' W 004°43'2 3.4
2017-Sep-21 21:00N 48°10' W 004°45'2 3.5
2017-Sep-21 20:30N 48°12' W 004°47'4 7.4
2017-Sep-21 20:00N 48°15' W 004°50'1 2.3
2017-Sep-21 19:30N 48°16' W 004°50'0 0.4
2017-Sep-21 19:00N 48°16' W 004°50'3 5.2
2017-Sep-21 18:30N 48°14' W 004°49'3 6.0
2017-Sep-21 18:00N 48°12' W 004°45'5 9.2
2017-Sep-21 17:30N 48°10' W 004°39'5 9.7
2017-Sep-21 17:00N 48°09' W 004°32'5 9.5
2017-Sep-21 16:30N 48°08' W 004°25'4 8.1
2017-Sep-21 16:00N 48°06' W 004°19'0 0.0
2017-Sep-21 15:30N 48°06' W 004°19'0 0.0
2017-Sep-21 01:41N 48°06' W 004°19'0 0.2
2017-Sep-21 01:30N 48°06' W 004°19'0 0.0
2017-Sep-21 01:00N 48°06' W 004°19'0 0.0
2017-Sep-21 00:30N 48°06' W 004°19'0 0.0
2017-Sep-21 00:00N 48°06' W 004°19'0 0.0
2017-Sep-20 23:30N 48°06' W 004°19'0 0.0
2017-Sep-20 23:00N 48°06' W 004°19'0 0.0
2017-Sep-20 22:30N 48°06' W 004°19'4 7.9
2017-Sep-20 22:00N 48°07' W 004°25'5 9.4
2017-Sep-20 21:30N 48°09' W 004°32'4 8.9
2017-Sep-20 21:00N 48°10' W 004°38'5 9.3
2017-Sep-20 20:30N 48°12' W 004°44'5 9.2
2017-Sep-20 20:00N 48°15' W 004°50'1 2.5
2017-Sep-20 19:30N 48°16' W 004°51'0 0.2
2017-Sep-20 19:00N 48°16' W 004°51'1 1.6
2017-Sep-20 18:30N 48°17' W 004°51'4 7.6
2017-Sep-20 18:00N 48°16' W 004°46'4 8.9
2017-Sep-20 17:30N 48°12' W 004°42'4 8.8
2017-Sep-20 17:00N 48°10' W 004°37'5 9.5
2017-Sep-20 16:30N 48°09' W 004°30'4 8.7
2017-Sep-20 16:00N 48°08' W 004°23'3 6.3
2017-Sep-20 15:30N 48°06' W 004°19'0 0.0
2017-Sep-20 15:00N 48°06' W 004°19'0 0.0
2017-Sep-20 04:01N 48°06' W 004°19'0 0.0
2017-Sep-20 04:01N 48°06' W 004°19'0 0.0
2017-Sep-20 03:30N 48°06' W 004°19'0 0.0
2017-Sep-20 03:01N 48°06' W 004°19'0 0.0
2017-Sep-20 02:31N 48°06' W 004°19'0 0.0
2017-Sep-20 02:00N 48°06' W 004°19'0 0.0
2017-Sep-20 01:31N 48°06' W 004°19'4 7.8
2017-Sep-20 01:00N 48°07' W 004°25'510.3
2017-Sep-20 00:29N 48°06' W 004°33'510.5
2017-Sep-20 00:01N 48°05' W 004°40'5 9.1
2017-Sep-19 23:30N 48°03' W 004°46'510.2
2017-Sep-19 23:00N 47°57' W 004°47'1 1.6
2017-Sep-19 22:28N 47°57' W 004°46'0 0.3
2017-Sep-19 22:00N 47°57' W 004°46'0 0.7
2017-Sep-19 21:30N 47°56' W 004°45'0 0.4
2017-Sep-19 21:01N 47°56' W 004°45'1 2.3
2017-Sep-19 20:30N 47°57' W 004°44'4 5.4
2017-Sep-19 19:50N 47°56' W 004°39'0 0.5
2017-Sep-19 19:25N 47°55' W 004°39'2 5.7
2017-Sep-19 19:01N 47°57' W 004°42'4 7.1
2017-Sep-19 18:30N 47°57' W 004°48'3 6.4
2017-Sep-19 18:01N 47°60' W 004°47'611.3
2017-Sep-19 17:30N 48°04' W 004°43'5 9.5
2017-Sep-19 17:00N 48°05' W 004°36'5 9.4
2017-Sep-19 16:30N 48°06' W 004°29'5 9.1
2017-Sep-19 16:00N 48°07' W 004°22'2 3.9
2017-Sep-19 15:31N 48°06' W 004°19'0 0.1
2017-Sep-19 15:00N 48°06' W 004°19'0 0.0
2017-Sep-19 04:11N 48°06' W 004°19'0 0.0
2017-Sep-19 04:00N 48°06' W 004°19'0 0.0
2017-Sep-19 03:30N 48°06' W 004°19'0 0.0
2017-Sep-19 03:00N 48°06' W 004°19'0 0.0
2017-Sep-19 02:30N 48°06' W 004°19'0 0.4
2017-Sep-19 02:00N 48°06' W 004°19'5 9.6
2017-Sep-19 01:30N 48°08' W 004°26'3 5.4
2017-Sep-19 01:00N 48°08' W 004°30'1 2.3
2017-Sep-19 00:30N 48°09' W 004°32'1 1.7
2017-Sep-19 00:00N 48°08' W 004°33'0 0.9
2017-Sep-18 23:31N 48°08' W 004°34'0 0.3
2017-Sep-18 23:00N 48°08' W 004°34'0 0.6
2017-Sep-18 22:30N 48°08' W 004°34'2 4.1
2017-Sep-18 22:00N 48°08' W 004°37'5 9.4
2017-Sep-18 21:30N 48°10' W 004°44'5 9.3
2017-Sep-18 21:00N 48°13' W 004°49'4 8.2
2017-Sep-18 20:30N 48°17' W 004°51'1 2.3
2017-Sep-18 20:00N 48°16' W 004°51'0 0.6
2017-Sep-18 19:30N 48°16' W 004°50'1 2.0
2017-Sep-18 19:00N 48°15' W 004°49'5 9.1
2017-Sep-18 18:30N 48°11' W 004°45'5 9.6
2017-Sep-18 18:00N 48°10' W 004°38'510.1
2017-Sep-18 17:30N 48°09' W 004°31'5 9.8
2017-Sep-18 17:00N 48°08' W 004°24'3 6.7
2017-Sep-18 16:30N 48°06' W 004°19'0 0.0
2017-Sep-18 16:00N 48°06' W 004°19'0 0.0
2017-Sep-18 04:19N 48°06' W 004°19'0 0.0
2017-Sep-18 04:00N 48°06' W 004°19'0 0.0
2017-Sep-18 03:31N 48°06' W 004°19'0 0.0
2017-Sep-18 03:01N 48°06' W 004°19'0 0.0
2017-Sep-18 02:31N 48°06' W 004°19'0 0.0
2017-Sep-18 02:01N 48°06' W 004°19'0 0.0
2017-Sep-18 01:31N 48°06' W 004°19'4 8.5
2017-Sep-18 01:00N 48°07' W 004°26'5 9.9
2017-Sep-18 00:31N 48°08' W 004°33'1 1.6
2017-Sep-18 00:01N 48°08' W 004°34'0 0.8
2017-Sep-17 23:30N 48°08' W 004°35'0 0.4
2017-Sep-17 23:00N 48°08' W 004°35'3 5.9
2017-Sep-17 22:30N 48°09' W 004°39'4 8.1
2017-Sep-17 22:00N 48°11' W 004°45'4 7.2
2017-Sep-17 21:31N 48°12' W 004°50'3 6.1
2017-Sep-17 21:00N 48°12' W 004°54'5 9.1
2017-Sep-17 20:30N 48°11' W 004°48'2 3.0
2017-Sep-17 20:01N 48°12' W 004°47'1 2.9
2017-Sep-17 19:31N 48°12' W 004°45'0 0.3
2017-Sep-17 19:00N 48°12' W 004°45'3 5.8
2017-Sep-17 18:31N 48°11' W 004°41'5 9.9
2017-Sep-17 18:00N 48°09' W 004°34'5 9.9
2017-Sep-17 17:31N 48°08' W 004°27'5 9.7
2017-Sep-17 16:59N 48°06' W 004°20'0 1.0
2017-Sep-17 16:30N 48°06' W 004°19'0 0.0
2017-Sep-17 16:01N 48°06' W 004°19'  
2017-Sep-15 05:48N 48°06' W 004°19'0 0.0
2017-Sep-15 05:30N 48°06' W 004°19'0 0.0
2017-Sep-15 05:00N 48°06' W 004°19'0 0.0
2017-Sep-15 04:30N 48°06' W 004°19'0 0.0
2017-Sep-15 04:00N 48°06' W 004°19'0 0.0
2017-Sep-15 03:30N 48°06' W 004°19'0 0.0
2017-Sep-15 03:00N 48°06' W 004°19'0 0.0
2017-Sep-15 02:30N 48°06' W 004°19'0 0.0
2017-Sep-15 02:00N 48°06' W 004°19'1 1.7
2017-Sep-15 01:30N 48°07' W 004°20'5 9.6
2017-Sep-15 01:00N 48°08' W 004°27'5 9.5
2017-Sep-15 00:30N 48°09' W 004°34'5 9.5
2017-Sep-15 00:00N 48°11' W 004°41'2 4.1
2017-Sep-14 23:28N 48°12' W 004°44'0 0.3
2017-Sep-14 23:00N 48°12' W 004°44'1 1.4
2017-Sep-14 22:30N 48°12' W 004°45'4 8.6
2017-Sep-14 22:00N 48°16' W 004°43'3 6.2
2017-Sep-14 21:28N 48°14' W 004°47'0 0.6
2017-Sep-14 21:00N 48°14' W 004°47'2 3.1
2017-Sep-14 20:30N 48°13' W 004°46'5 9.1
2017-Sep-14 20:00N 48°11' W 004°39'  
Track history (hours):
 
Tides and Currents Weather Stations Pressure Air Temp Water Temp Dewpoint Dewpoint Depression Visibility Wind Speed Wind Dir Waves Ship Positions

F/V Barr Avel

Last reported at 2017-Sep-24 19:30 UTC. Time now 2017-Sep-24 19:34 UTC.
Position N 48°14' W 004°46'.

Length 16 m.

Type: Fishing. MMSI: 228293000.

Date/timePositionNaut miles runAvg speedWind from/ knotsBaromVisibWave heightAir tempDewpointWater temp
2017-Sep-24 19:30N 48°14' W 004°46'1 3.0
2017-Sep-24 19:00N 48°13' W 004°48'0 0.7
2017-Sep-24 18:31N 48°13' W 004°47'4 7.8
2017-Sep-24 18:00N 48°09' W 004°44'5 9.1
2017-Sep-24 17:31N 48°09' W 004°37'4 8.9
2017-Sep-24 17:00N 48°09' W 004°30'4 8.9
2017-Sep-24 16:30N 48°08' W 004°24'4 7.1
2017-Sep-24 16:00N 48°06' W 004°19'0 0.1
2017-Sep-24 15:31N 48°06' W 004°19'0 0.0
2017-Sep-24 15:00N 48°06' W 004°19'  
2017-Sep-22 02:00N 48°10' W 004°29'1 1.5
2017-Sep-22 01:30N 48°10' W 004°30'0 0.8
2017-Sep-22 01:00N 48°10' W 004°30'1 1.4
2017-Sep-22 00:30N 48°09' W 004°30'0 0.8
2017-Sep-22 00:00N 48°09' W 004°31'0 0.3
2017-Sep-21 23:30N 48°09' W 004°31'0 0.9
2017-Sep-21 23:00N 48°09' W 004°31'1 2.0
2017-Sep-21 22:30N 48°08' W 004°31'4 8.2
2017-Sep-21 22:01N 48°07' W 004°38'4 8.5
2017-Sep-21 21:30N 48°09' W 004°43'2 3.4
2017-Sep-21 21:00N 48°10' W 004°45'2 3.5
2017-Sep-21 20:30N 48°12' W 004°47'4 7.4
2017-Sep-21 20:00N 48°15' W 004°50'1 2.3
2017-Sep-21 19:30N 48°16' W 004°50'0 0.4
2017-Sep-21 19:00N 48°16' W 004°50'3 5.2
2017-Sep-21 18:30N 48°14' W 004°49'3 6.0
2017-Sep-21 18:00N 48°12' W 004°45'5 9.2
2017-Sep-21 17:30N 48°10' W 004°39'5 9.7
2017-Sep-21 17:00N 48°09' W 004°32'5 9.5
2017-Sep-21 16:30N 48°08' W 004°25'4 8.1
2017-Sep-21 16:00N 48°06' W 004°19'0 0.0
2017-Sep-21 15:30N 48°06' W 004°19'0 0.0
2017-Sep-21 01:41N 48°06' W 004°19'0 0.2
2017-Sep-21 01:30N 48°06' W 004°19'0 0.0
2017-Sep-21 01:00N 48°06' W 004°19'0 0.0
2017-Sep-21 00:30N 48°06' W 004°19'0 0.0
2017-Sep-21 00:00N 48°06' W 004°19'0 0.0
2017-Sep-20 23:30N 48°06' W 004°19'0 0.0
2017-Sep-20 23:00N 48°06' W 004°19'0 0.0
2017-Sep-20 22:30N 48°06' W 004°19'4 7.9
2017-Sep-20 22:00N 48°07' W 004°25'5 9.4
2017-Sep-20 21:30N 48°09' W 004°32'4 8.9
2017-Sep-20 21:00N 48°10' W 004°38'5 9.3
2017-Sep-20 20:30N 48°12' W 004°44'5 9.2
2017-Sep-20 20:00N 48°15' W 004°50'1 2.5
2017-Sep-20 19:30N 48°16' W 004°51'0 0.2
2017-Sep-20 19:00N 48°16' W 004°51'1 1.6
2017-Sep-20 18:30N 48°17' W 004°51'4 7.6
2017-Sep-20 18:00N 48°16' W 004°46'4 8.9
2017-Sep-20 17:30N 48°12' W 004°42'4 8.8
2017-Sep-20 17:00N 48°10' W 004°37'5 9.5
2017-Sep-20 16:30N 48°09' W 004°30'4 8.7
2017-Sep-20 16:00N 48°08' W 004°23'3 6.3
2017-Sep-20 15:30N 48°06' W 004°19'0 0.0
2017-Sep-20 15:00N 48°06' W 004°19'0 0.0
2017-Sep-20 04:01N 48°06' W 004°19'0 0.0
2017-Sep-20 04:01N 48°06' W 004°19'0 0.0
2017-Sep-20 03:30N 48°06' W 004°19'0 0.0
2017-Sep-20 03:01N 48°06' W 004°19'0 0.0
2017-Sep-20 02:31N 48°06' W 004°19'0 0.0
2017-Sep-20 02:00N 48°06' W 004°19'0 0.0
2017-Sep-20 01:31N 48°06' W 004°19'4 7.8
2017-Sep-20 01:00N 48°07' W 004°25'510.3
2017-Sep-20 00:29N 48°06' W 004°33'510.5
2017-Sep-20 00:01N 48°05' W 004°40'5 9.1
2017-Sep-19 23:30N 48°03' W 004°46'510.2
2017-Sep-19 23:00N 47°57' W 004°47'1 1.6
2017-Sep-19 22:28N 47°57' W 004°46'0 0.3
2017-Sep-19 22:00N 47°57' W 004°46'0 0.7
2017-Sep-19 21:30N 47°56' W 004°45'0 0.4
2017-Sep-19 21:01N 47°56' W 004°45'1 2.3
2017-Sep-19 20:30N 47°57' W 004°44'4 5.4
2017-Sep-19 19:50N 47°56' W 004°39'0 0.5
2017-Sep-19 19:25N 47°55' W 004°39'2 5.7
2017-Sep-19 19:01N 47°57' W 004°42'4 7.1
2017-Sep-19 18:30N 47°57' W 004°48'3 6.4
2017-Sep-19 18:01N 47°60' W 004°47'611.3
2017-Sep-19 17:30N 48°04' W 004°43'5 9.5
2017-Sep-19 17:00N 48°05' W 004°36'5 9.4
2017-Sep-19 16:30N 48°06' W 004°29'5 9.1
2017-Sep-19 16:00N 48°07' W 004°22'2 3.9
2017-Sep-19 15:31N 48°06' W 004°19'0 0.1
2017-Sep-19 15:00N 48°06' W 004°19'0 0.0
2017-Sep-19 04:11N 48°06' W 004°19'0 0.0
2017-Sep-19 04:00N 48°06' W 004°19'0 0.0
2017-Sep-19 03:30N 48°06' W 004°19'0 0.0
2017-Sep-19 03:00N 48°06' W 004°19'0 0.0
2017-Sep-19 02:30N 48°06' W 004°19'0 0.4
2017-Sep-19 02:00N 48°06' W 004°19'5 9.6
2017-Sep-19 01:30N 48°08' W 004°26'3 5.4
2017-Sep-19 01:00N 48°08' W 004°30'1 2.3
2017-Sep-19 00:30N 48°09' W 004°32'1 1.7
2017-Sep-19 00:00N 48°08' W 004°33'0 0.9
2017-Sep-18 23:31N 48°08' W 004°34'0 0.3
2017-Sep-18 23:00N 48°08' W 004°34'0 0.6
2017-Sep-18 22:30N 48°08' W 004°34'2 4.1
2017-Sep-18 22:00N 48°08' W 004°37'5 9.4
2017-Sep-18 21:30N 48°10' W 004°44'5 9.3
2017-Sep-18 21:00N 48°13' W 004°49'4 8.2
2017-Sep-18 20:30N 48°17' W 004°51'1 2.3
2017-Sep-18 20:00N 48°16' W 004°51'0 0.6
2017-Sep-18 19:30N 48°16' W 004°50'1 2.0
2017-Sep-18 19:00N 48°15' W 004°49'5 9.1
2017-Sep-18 18:30N 48°11' W 004°45'5 9.6
2017-Sep-18 18:00N 48°10' W 004°38'510.1
2017-Sep-18 17:30N 48°09' W 004°31'5 9.8
2017-Sep-18 17:00N 48°08' W 004°24'3 6.7
2017-Sep-18 16:30N 48°06' W 004°19'0 0.0
2017-Sep-18 16:00N 48°06' W 004°19'0 0.0
2017-Sep-18 04:19N 48°06' W 004°19'0 0.0
2017-Sep-18 04:00N 48°06' W 004°19'0 0.0
2017-Sep-18 03:31N 48°06' W 004°19'0 0.0
2017-Sep-18 03:01N 48°06' W 004°19'0 0.0
2017-Sep-18 02:31N 48°06' W 004°19'0 0.0
2017-Sep-18 02:01N 48°06' W 004°19'0 0.0
2017-Sep-18 01:31N 48°06' W 004°19'4 8.5
2017-Sep-18 01:00N 48°07' W 004°26'5 9.9
2017-Sep-18 00:31N 48°08' W 004°33'1 1.6
2017-Sep-18 00:01N 48°08' W 004°34'0 0.8
2017-Sep-17 23:30N 48°08' W 004°35'0 0.4
2017-Sep-17 23:00N 48°08' W 004°35'3 5.9
2017-Sep-17 22:30N 48°09' W 004°39'4 8.1
2017-Sep-17 22:00N 48°11' W 004°45'4 7.2
2017-Sep-17 21:31N 48°12' W 004°50'3 6.1
2017-Sep-17 21:00N 48°12' W 004°54'5 9.1
2017-Sep-17 20:30N 48°11' W 004°48'2 3.0
2017-Sep-17 20:01N 48°12' W 004°47'1 2.9
2017-Sep-17 19:31N 48°12' W 004°45'0 0.3
2017-Sep-17 19:00N 48°12' W 004°45'3 5.8
2017-Sep-17 18:31N 48°11' W 004°41'5 9.9
2017-Sep-17 18:00N 48°09' W 004°34'5 9.9
2017-Sep-17 17:31N 48°08' W 004°27'5 9.7
2017-Sep-17 16:59N 48°06' W 004°20'0 1.0
2017-Sep-17 16:30N 48°06' W 004°19'0 0.0
2017-Sep-17 16:01N 48°06' W 004°19'  
2017-Sep-15 05:48N 48°06' W 004°19'0 0.0
2017-Sep-15 05:30N 48°06' W 004°19'0 0.0
2017-Sep-15 05:00N 48°06' W 004°19'0 0.0
2017-Sep-15 04:30N 48°06' W 004°19'0 0.0
2017-Sep-15 04:00N 48°06' W 004°19'0 0.0
2017-Sep-15 03:30N 48°06' W 004°19'0 0.0
2017-Sep-15 03:00N 48°06' W 004°19'0 0.0
2017-Sep-15 02:30N 48°06' W 004°19'0 0.0
2017-Sep-15 02:00N 48°06' W 004°19'1 1.7
2017-Sep-15 01:30N 48°07' W 004°20'5 9.6
2017-Sep-15 01:00N 48°08' W 004°27'5 9.5
2017-Sep-15 00:30N 48°09' W 004°34'5 9.5
2017-Sep-15 00:00N 48°11' W 004°41'2 4.1
2017-Sep-14 23:28N 48°12' W 004°44'0 0.3
2017-Sep-14 23:00N 48°12' W 004°44'1 1.4
2017-Sep-14 22:30N 48°12' W 004°45'4 8.6
2017-Sep-14 22:00N 48°16' W 004°43'3 6.2
2017-Sep-14 21:28N 48°14' W 004°47'0 0.6
2017-Sep-14 21:00N 48°14' W 004°47'2 3.1
2017-Sep-14 20:30N 48°13' W 004°46'5 9.1
2017-Sep-14 20:00N 48°11' W 004°39'  

Dump ship's entire track history